createdAt,value
2019-01-22T00:00:20.066Z,63.50
2019-01-22T00:01:20.054Z,69.00
2019-01-22T00:02:20.017Z,65.80
2019-01-22T00:03:19.990Z,58.20
2019-01-22T00:04:19.965Z,60.30
2019-01-22T00:05:19.941Z,55.10
2019-01-22T00:06:19.914Z,55.20
2019-01-22T00:07:19.890Z,49.30
2019-01-22T00:08:19.867Z,49.00
2019-01-22T00:09:19.844Z,49.30
2019-01-22T00:10:19.818Z,47.00
2019-01-22T00:11:19.792Z,48.00
2019-01-22T00:12:19.767Z,45.20
2019-01-22T00:13:19.748Z,44.70
2019-01-22T00:14:19.715Z,44.80
2019-01-22T00:15:19.692Z,46.30
2019-01-22T00:16:19.666Z,44.60
2019-01-22T00:17:19.639Z,41.70
2019-01-22T00:18:19.614Z,45.70
2019-01-22T00:19:19.589Z,47.60
2019-01-22T00:20:19.563Z,45.70
2019-01-22T00:21:19.539Z,47.30
2019-01-22T00:22:19.514Z,43.50
2019-01-22T00:23:19.498Z,45.10
2019-01-22T00:24:19.463Z,44.00
2019-01-22T00:25:19.439Z,43.50
2019-01-22T00:26:19.416Z,43.50
2019-01-22T00:27:19.393Z,46.30
2019-01-22T00:28:19.364Z,43.00
2019-01-22T00:29:19.344Z,42.00
2019-01-22T00:30:19.313Z,46.10
2019-01-22T00:31:19.292Z,46.00
2019-01-22T00:32:19.265Z,42.70
2019-01-22T00:33:19.247Z,44.90
2019-01-22T00:34:19.214Z,43.60
2019-01-22T00:35:19.195Z,42.40
2019-01-22T00:36:19.170Z,43.50
2019-01-22T00:37:19.144Z,46.80
2019-01-22T00:38:19.121Z,41.80
2019-01-22T00:39:19.093Z,44.70
2019-01-22T00:40:19.066Z,48.20
2019-01-22T00:41:19.040Z,42.80
2019-01-22T00:42:19.016Z,43.10
2019-01-22T00:43:18.993Z,47.10
2019-01-22T00:44:18.965Z,42.90
2019-01-22T00:45:18.940Z,46.00
2019-01-22T00:46:18.920Z,43.30
2019-01-22T00:47:18.896Z,46.50
2019-01-22T00:48:18.865Z,43.90
2019-01-22T00:49:18.849Z,44.80
2019-01-22T00:50:18.815Z,46.50
2019-01-22T00:51:18.790Z,44.90
2019-01-22T00:52:18.765Z,44.00
2019-01-22T00:53:18.738Z,43.80
2019-01-22T00:54:18.713Z,48.80
2019-01-22T00:55:18.693Z,44.50
2019-01-22T00:56:18.660Z,42.90
2019-01-22T00:57:18.639Z,43.90
2019-01-22T00:58:18.618Z,45.30
2019-01-22T00:59:18.585Z,45.20
2019-01-22T01:00:18.559Z,43.40
2019-01-22T01:01:18.534Z,45.10
2019-01-22T01:02:18.519Z,48.80
2019-01-22T01:03:18.484Z,48.60
2019-01-22T01:04:18.459Z,46.70
2019-01-22T01:05:18.441Z,47.50
2019-01-22T01:06:18.410Z,47.90
2019-01-22T01:07:18.382Z,51.30
2019-01-22T01:08:18.363Z,49.40
2019-01-22T01:09:18.331Z,48.20
2019-01-22T01:10:18.306Z,48.10
2019-01-22T01:11:18.284Z,50.30
2019-01-22T01:12:18.268Z,44.60
2019-01-22T01:13:18.228Z,46.70
2019-01-22T01:14:18.204Z,47.50
2019-01-22T01:15:18.184Z,48.60
2019-01-22T01:16:18.154Z,46.80
2019-01-22T01:17:18.126Z,48.90
2019-01-22T01:18:18.107Z,51.50
2019-01-22T01:19:18.078Z,52.90
2019-01-22T01:20:18.051Z,47.80
2019-01-22T01:21:18.029Z,47.80
2019-01-22T01:22:18.002Z,46.70
2019-01-22T01:23:17.976Z,43.90
2019-01-22T01:24:17.956Z,47.70
2019-01-22T01:25:17.921Z,49.10
2019-01-22T01:26:17.897Z,51.00
2019-01-22T01:27:17.871Z,49.40
2019-01-22T01:28:17.844Z,47.60
2019-01-22T01:29:17.818Z,48.60
2019-01-22T01:30:17.792Z,48.50
2019-01-22T01:31:17.766Z,51.60
2019-01-22T01:32:17.740Z,46.10
2019-01-22T01:33:17.720Z,47.20
2019-01-22T01:34:17.688Z,49.20
2019-01-22T01:35:17.665Z,46.30
2019-01-22T01:36:17.637Z,47.00
2019-01-22T01:37:17.623Z,46.20
2019-01-22T01:38:17.587Z,47.90
2019-01-22T01:39:17.568Z,45.10
2019-01-22T01:40:17.536Z,47.90
2019-01-22T01:41:17.512Z,48.00
2019-01-22T01:42:17.487Z,44.10
2019-01-22T01:43:17.458Z,44.30
2019-01-22T01:44:17.432Z,50.70
2019-01-22T01:45:17.405Z,47.20
2019-01-22T01:46:17.382Z,46.40
2019-01-22T01:47:17.355Z,48.00
2019-01-22T01:48:17.330Z,47.70
2019-01-22T01:49:17.315Z,46.40
2019-01-22T01:50:17.283Z,46.40
2019-01-22T01:51:17.301Z,47.80
2019-01-22T01:52:17.225Z,43.10
2019-01-22T01:53:23.685Z,46.10
2019-01-22T01:54:17.175Z,47.50
2019-01-22T01:55:17.148Z,44.90
2019-01-22T01:56:17.121Z,46.70
2019-01-22T01:57:17.097Z,45.60
2019-01-22T01:58:17.080Z,46.70
2019-01-22T01:59:17.047Z,46.60
2019-01-22T02:00:17.021Z,45.40
2019-01-22T02:01:16.999Z,45.00
2019-01-22T02:02:16.970Z,45.80
2019-01-22T02:03:16.943Z,44.30
2019-01-22T02:04:16.930Z,46.80
2019-01-22T02:05:16.893Z,46.20
2019-01-22T02:06:16.873Z,45.70
2019-01-22T02:07:16.839Z,47.30
2019-01-22T02:08:16.813Z,49.80
2019-01-22T02:09:16.787Z,46.10
2019-01-22T02:10:16.765Z,48.40
2019-01-22T02:11:16.737Z,46.50
2019-01-22T02:12:16.711Z,44.80
2019-01-22T02:13:16.682Z,46.20
2019-01-22T02:14:16.657Z,46.40
2019-01-22T02:15:16.632Z,48.70
2019-01-22T02:16:16.605Z,45.50
2019-01-22T02:17:16.582Z,46.60
2019-01-22T02:18:16.552Z,48.30
2019-01-22T02:19:16.527Z,45.40
2019-01-22T02:20:16.501Z,49.50
2019-01-22T02:21:16.483Z,47.30
2019-01-22T02:22:16.450Z,44.80
2019-01-22T02:23:16.425Z,48.70
2019-01-22T02:24:16.399Z,46.70
2019-01-22T02:25:16.381Z,46.70
2019-01-22T02:26:16.346Z,46.80
2019-01-22T02:27:16.321Z,47.50
2019-01-22T02:28:16.295Z,45.80
2019-01-22T02:29:16.268Z,45.70
2019-01-22T02:30:16.244Z,46.50
2019-01-22T02:31:16.218Z,47.40
2019-01-22T02:32:16.191Z,45.10
2019-01-22T02:33:16.162Z,46.10
2019-01-22T02:34:16.142Z,47.70
2019-01-22T02:35:16.113Z,47.50
2019-01-22T02:36:16.083Z,46.90
2019-01-22T02:37:16.061Z,47.70
2019-01-22T02:38:16.036Z,49.20
2019-01-22T02:39:16.006Z,47.40
2019-01-22T02:40:15.983Z,50.20
2019-01-22T02:41:15.953Z,47.50
2019-01-22T02:42:15.926Z,49.90
2019-01-22T02:43:15.899Z,49.00
2019-01-22T02:44:15.874Z,47.40
2019-01-22T02:45:15.848Z,49.90
2019-01-22T02:46:15.825Z,47.60
2019-01-22T02:47:15.796Z,47.50
2019-01-22T02:48:15.766Z,46.50
2019-01-22T02:49:15.743Z,47.10
2019-01-22T02:50:15.716Z,50.70
2019-01-22T02:51:15.689Z,47.20
2019-01-22T02:52:15.668Z,48.90
2019-01-22T02:53:15.630Z,50.20
2019-01-22T02:54:15.602Z,48.90
2019-01-22T02:55:15.579Z,45.80
2019-01-22T02:56:15.560Z,45.00
2019-01-22T02:57:15.524Z,45.90
2019-01-22T02:58:15.503Z,50.80
2019-01-22T02:59:15.477Z,50.60
2019-01-22T03:00:15.446Z,50.70
2019-01-22T03:01:15.416Z,44.00
2019-01-22T03:02:15.391Z,47.70
2019-01-22T03:03:15.373Z,47.00
2019-01-22T03:04:15.336Z,48.30
2019-01-22T03:05:15.314Z,44.40
2019-01-22T03:06:15.286Z,45.90
2019-01-22T03:07:15.259Z,46.30
2019-01-22T03:08:15.236Z,49.30
2019-01-22T03:09:15.210Z,46.90
2019-01-22T03:10:15.179Z,41.90
2019-01-22T03:11:15.153Z,50.00
2019-01-22T03:12:15.123Z,45.40
2019-01-22T03:13:15.096Z,47.20
2019-01-22T03:14:15.074Z,46.60
2019-01-22T03:15:15.051Z,48.20
2019-01-22T03:16:15.017Z,47.90
2019-01-22T03:17:14.993Z,46.10
2019-01-22T03:18:14.963Z,45.80
2019-01-22T03:19:14.938Z,45.50
2019-01-22T03:20:14.911Z,44.30
2019-01-22T03:21:14.884Z,42.50
2019-01-22T03:22:14.859Z,46.70
2019-01-22T03:23:14.837Z,47.20
2019-01-22T03:24:14.805Z,42.60
2019-01-22T03:25:14.776Z,42.20
2019-01-22T03:26:14.753Z,42.00
2019-01-22T03:27:14.730Z,45.20
2019-01-22T03:28:14.698Z,43.70
2019-01-22T03:29:14.675Z,43.50
2019-01-22T03:30:14.657Z,41.80
2019-01-22T03:31:14.625Z,45.80
2019-01-22T03:32:14.592Z,43.00
2019-01-22T03:33:14.569Z,44.60
2019-01-22T03:34:14.551Z,43.10
2019-01-22T03:35:14.517Z,43.20
2019-01-22T03:36:14.488Z,44.60
2019-01-22T03:37:14.462Z,44.80
2019-01-22T03:38:14.439Z,43.40
2019-01-22T03:39:14.407Z,48.40
2019-01-22T03:40:14.382Z,46.70
2019-01-22T03:41:14.357Z,44.60
2019-01-22T03:42:14.330Z,43.10
2019-01-22T03:43:14.313Z,42.70
2019-01-22T03:44:14.275Z,42.60
2019-01-22T03:45:14.245Z,40.90
2019-01-22T03:46:14.219Z,49.00
2019-01-22T03:47:14.195Z,43.60
2019-01-22T03:48:14.175Z,46.20
2019-01-22T03:49:14.140Z,46.10
2019-01-22T03:50:14.112Z,48.90
2019-01-22T03:51:14.089Z,44.50
2019-01-22T03:52:14.060Z,44.40
2019-01-22T03:53:14.035Z,43.70
2019-01-22T03:54:14.006Z,45.10
2019-01-22T03:55:13.985Z,40.40
2019-01-22T03:56:13.956Z,45.30
2019-01-22T03:57:13.929Z,44.40
2019-01-22T03:58:13.901Z,41.80
2019-01-22T03:59:13.875Z,40.90
2019-01-22T04:00:13.847Z,40.40
2019-01-22T04:01:13.820Z,42.00
2019-01-22T04:02:13.794Z,40.30
2019-01-22T04:03:13.768Z,41.00
2019-01-22T04:04:13.744Z,42.50
2019-01-22T04:05:13.713Z,38.10
2019-01-22T04:06:13.693Z,39.40
2019-01-22T04:07:13.662Z,42.50
2019-01-22T04:08:13.638Z,38.20
2019-01-22T04:09:13.610Z,42.00
2019-01-22T04:10:13.585Z,39.60
2019-01-22T04:11:13.555Z,40.40
2019-01-22T04:12:13.527Z,43.00
2019-01-22T04:13:13.517Z,42.30
2019-01-22T04:14:13.476Z,40.20
2019-01-22T04:15:13.452Z,39.40
2019-01-22T04:16:13.422Z,39.80
2019-01-22T04:17:13.395Z,41.60
2019-01-22T04:18:13.371Z,37.60
2019-01-22T04:19:13.346Z,39.10
2019-01-22T04:20:13.323Z,36.60
2019-01-22T04:21:13.291Z,41.10
2019-01-22T04:22:13.263Z,37.80
2019-01-22T04:23:13.245Z,36.20
2019-01-22T04:24:13.210Z,36.90
2019-01-22T04:25:13.193Z,38.90
2019-01-22T04:26:13.164Z,38.50
2019-01-22T04:27:13.132Z,37.00
2019-01-22T04:28:13.104Z,36.60
2019-01-22T04:29:13.075Z,37.60
2019-01-22T04:30:13.058Z,36.80
2019-01-22T04:31:13.029Z,36.30
2019-01-22T04:32:12.999Z,38.20
2019-01-22T04:33:12.971Z,35.00
2019-01-22T04:34:12.945Z,36.80
2019-01-22T04:35:12.918Z,35.70
2019-01-22T04:36:12.888Z,36.90
2019-01-22T04:37:12.863Z,35.70
2019-01-22T04:38:12.842Z,32.90
2019-01-22T04:39:12.812Z,32.40
2019-01-22T04:40:12.783Z,37.20
2019-01-22T04:41:12.761Z,38.10
2019-01-22T04:42:12.738Z,34.50
2019-01-22T04:43:12.709Z,31.70
2019-01-22T04:44:12.675Z,32.70
2019-01-22T04:45:13.469Z,32.30
2019-01-22T04:46:12.623Z,31.80
2019-01-22T04:47:12.595Z,33.90
2019-01-22T04:48:12.604Z,32.40
2019-01-22T04:49:12.540Z,33.50
2019-01-22T04:50:12.515Z,34.80
2019-01-22T04:51:12.488Z,34.00
2019-01-22T04:52:12.466Z,33.60
2019-01-22T04:53:12.433Z,34.20
2019-01-22T04:54:12.411Z,35.40
2019-01-22T04:55:12.383Z,36.10
2019-01-22T04:56:12.353Z,35.20
2019-01-22T04:57:12.327Z,37.10
2019-01-22T04:58:12.313Z,35.80
2019-01-22T04:59:12.274Z,33.20
2019-01-22T05:00:12.248Z,34.30
2019-01-22T05:01:12.220Z,36.00
2019-01-22T05:02:12.200Z,34.50
2019-01-22T05:03:12.166Z,31.80
2019-01-22T05:04:12.139Z,36.80
2019-01-22T05:05:12.130Z,36.00
2019-01-22T05:06:12.086Z,34.90
2019-01-22T05:07:12.058Z,34.60
2019-01-22T05:08:12.029Z,36.40
2019-01-22T05:09:12.005Z,35.20
2019-01-22T05:10:11.977Z,32.80
2019-01-22T05:11:11.948Z,34.20
2019-01-22T05:12:11.920Z,36.10
2019-01-22T05:13:11.894Z,36.50
2019-01-22T05:14:11.877Z,34.40
2019-01-22T05:15:11.842Z,35.90
2019-01-22T05:16:11.810Z,35.80
2019-01-22T05:17:11.819Z,44.20
2019-01-22T05:18:11.758Z,33.40
2019-01-22T05:19:11.730Z,34.80
2019-01-22T05:20:11.701Z,44.40
2019-01-22T05:21:11.676Z,40.50
2019-01-22T05:22:11.648Z,37.20
2019-01-22T05:23:11.621Z,34.90
2019-01-22T05:24:17.656Z,34.20
2019-01-22T05:25:11.568Z,31.50
2019-01-22T05:26:11.539Z,33.10
2019-01-22T05:27:11.519Z,33.20
2019-01-22T05:28:11.486Z,34.10
2019-01-22T05:29:11.457Z,34.20
2019-01-22T05:30:11.430Z,34.80
2019-01-22T05:31:11.409Z,33.50
2019-01-22T05:32:11.378Z,33.50
2019-01-22T05:33:11.349Z,33.50
2019-01-22T05:34:11.321Z,33.30
2019-01-22T05:35:11.303Z,34.20
2019-01-22T05:36:11.269Z,31.70
2019-01-22T05:37:11.245Z,36.00
2019-01-22T05:38:11.214Z,35.30
2019-01-22T05:39:11.189Z,34.50
2019-01-22T05:40:11.163Z,37.60
2019-01-22T05:41:11.131Z,32.30
2019-01-22T05:42:11.105Z,33.00
2019-01-22T05:43:11.080Z,32.80
2019-01-22T05:44:11.053Z,36.30
2019-01-22T05:45:11.027Z,32.70
2019-01-22T05:46:11.013Z,33.90
2019-01-22T05:47:10.972Z,32.30
2019-01-22T05:48:13.477Z,36.00
2019-01-22T05:49:10.920Z,34.30
2019-01-22T05:50:10.915Z,35.10
2019-01-22T05:51:10.867Z,35.90
2019-01-22T05:52:10.835Z,36.80
2019-01-22T05:53:10.810Z,39.00
2019-01-22T05:54:10.782Z,39.80
2019-01-22T05:55:10.767Z,38.80
2019-01-22T05:56:10.727Z,38.50
2019-01-22T05:57:10.705Z,36.80
2019-01-22T05:58:10.681Z,39.00
2019-01-22T05:59:10.646Z,37.70
2019-01-22T06:00:10.623Z,36.10
2019-01-22T06:01:10.593Z,38.50
2019-01-22T06:02:10.574Z,37.10
2019-01-22T06:03:10.575Z,33.20
2019-01-22T06:04:10.544Z,33.60
2019-01-22T06:05:10.574Z,36.60
2019-01-22T06:06:10.593Z,34.40
2019-01-22T06:07:10.445Z,34.90
2019-01-22T06:08:10.402Z,36.80
2019-01-22T06:09:10.382Z,32.50
2019-01-22T06:10:10.348Z,33.50
2019-01-22T06:11:10.322Z,33.30
2019-01-22T06:12:10.292Z,32.90
2019-01-22T06:13:10.263Z,34.20
2019-01-22T06:14:10.241Z,36.40
2019-01-22T06:15:10.211Z,32.70
2019-01-22T06:16:10.190Z,35.40
2019-01-22T06:17:10.154Z,39.30
2019-01-22T06:18:10.134Z,37.30
2019-01-22T06:19:10.110Z,37.10
2019-01-22T06:20:10.078Z,39.90
2019-01-22T06:21:10.047Z,38.10
2019-01-22T06:22:10.022Z,37.30
2019-01-22T06:23:09.996Z,43.00
2019-01-22T06:24:09.974Z,36.50
2019-01-22T06:25:09.942Z,38.20
2019-01-22T06:26:09.912Z,34.10
2019-01-22T06:27:09.887Z,37.00
2019-01-22T06:28:09.860Z,32.90
2019-01-22T06:29:09.833Z,36.70
2019-01-22T06:30:09.805Z,35.60
2019-01-22T06:31:09.776Z,37.30
2019-01-22T06:32:09.755Z,37.50
2019-01-22T06:33:09.719Z,37.10
2019-01-22T06:34:09.702Z,33.70
2019-01-22T06:35:09.670Z,35.70
2019-01-22T06:36:09.644Z,31.70
2019-01-22T06:37:09.623Z,32.80
2019-01-22T06:38:09.583Z,35.70
2019-01-22T06:39:09.559Z,36.40
2019-01-22T06:40:09.529Z,33.10
2019-01-22T06:41:09.501Z,35.10
2019-01-22T06:42:09.475Z,33.70
2019-01-22T06:43:09.443Z,34.70
2019-01-22T06:44:09.420Z,38.30
2019-01-22T06:45:09.393Z,37.90
2019-01-22T06:46:09.362Z,35.00
2019-01-22T06:47:09.340Z,34.90
2019-01-22T06:48:09.311Z,32.80
2019-01-22T06:49:09.296Z,39.30
2019-01-22T06:50:09.254Z,34.40
2019-01-22T06:51:09.227Z,36.50
2019-01-22T06:52:09.202Z,34.10
2019-01-22T06:53:09.170Z,35.00
2019-01-22T06:54:09.144Z,32.10
2019-01-22T06:55:09.116Z,32.60
2019-01-22T06:56:09.087Z,32.60
2019-01-22T06:57:09.060Z,32.50
2019-01-22T06:58:09.034Z,33.60
2019-01-22T06:59:09.005Z,32.80
2019-01-22T07:00:08.978Z,32.70
2019-01-22T07:01:08.948Z,33.90
2019-01-22T07:02:08.926Z,31.20
2019-01-22T07:03:08.896Z,33.10
2019-01-22T07:04:08.867Z,32.60
2019-01-22T07:05:08.840Z,33.70
2019-01-22T07:06:08.815Z,33.90
2019-01-22T07:07:08.786Z,35.10
2019-01-22T07:08:08.761Z,31.50
2019-01-22T07:09:08.735Z,33.00
2019-01-22T07:10:08.706Z,30.40
2019-01-22T07:11:08.679Z,33.70
2019-01-22T07:12:08.654Z,33.20
2019-01-22T07:13:08.622Z,32.10
2019-01-22T07:14:08.596Z,30.60
2019-01-22T07:15:08.571Z,29.90
2019-01-22T07:16:08.541Z,30.40
2019-01-22T07:17:08.512Z,31.70
2019-01-22T07:18:08.487Z,30.90
2019-01-22T07:19:08.464Z,31.30
2019-01-22T07:20:08.432Z,31.60
2019-01-22T07:21:08.404Z,31.70
2019-01-22T07:22:08.377Z,31.50
2019-01-22T07:23:08.356Z,31.90
2019-01-22T07:24:08.323Z,31.30
2019-01-22T07:25:08.294Z,30.40
2019-01-22T07:26:08.268Z,33.30
2019-01-22T07:27:08.247Z,29.40
2019-01-22T07:28:08.214Z,32.10
2019-01-22T07:29:08.186Z,35.10
2019-01-22T07:30:08.157Z,32.00
2019-01-22T07:31:08.134Z,31.90
2019-01-22T07:32:08.100Z,32.10
2019-01-22T07:33:08.073Z,30.20
2019-01-22T07:34:08.260Z,30.20
2019-01-22T07:35:08.025Z,28.60
2019-01-22T07:36:07.994Z,32.40
2019-01-22T07:37:07.965Z,32.20
2019-01-22T07:38:07.948Z,32.80
2019-01-22T07:39:07.912Z,31.00
2019-01-22T07:40:07.894Z,29.30
2019-01-22T07:41:07.859Z,29.50
2019-01-22T07:42:07.828Z,31.60
2019-01-22T07:43:08.480Z,29.70
2019-01-22T07:44:07.778Z,32.20
2019-01-22T07:45:07.749Z,32.60
2019-01-22T07:46:07.719Z,35.80
2019-01-22T07:47:07.692Z,30.50
2019-01-22T07:48:07.667Z,31.60
2019-01-22T07:49:07.637Z,31.30
2019-01-22T07:50:07.612Z,33.80
2019-01-22T07:51:07.585Z,29.40
2019-01-22T07:52:07.557Z,31.70
2019-01-22T07:53:07.527Z,30.20
2019-01-22T07:54:07.504Z,31.00
2019-01-22T07:55:07.481Z,30.80
2019-01-22T07:56:07.449Z,32.10
2019-01-22T07:57:07.436Z,29.00
2019-01-22T07:58:07.401Z,30.50
2019-01-22T07:59:07.366Z,30.90
2019-01-22T08:00:07.340Z,32.10
2019-01-22T08:01:07.321Z,31.50
2019-01-22T08:02:07.285Z,30.30
2019-01-22T08:03:07.264Z,31.70
2019-01-22T08:04:07.233Z,30.20
2019-01-22T08:05:07.209Z,29.30
2019-01-22T08:06:07.184Z,30.80
2019-01-22T08:07:07.153Z,33.00
2019-01-22T08:08:07.133Z,30.40
2019-01-22T08:09:07.097Z,30.80
2019-01-22T08:10:07.068Z,31.30
2019-01-22T08:11:07.254Z,29.00
2019-01-22T08:12:07.011Z,33.00
2019-01-22T08:13:06.986Z,29.50
2019-01-22T08:14:06.964Z,31.00
2019-01-22T08:15:06.934Z,31.80
2019-01-22T08:16:06.905Z,30.70
2019-01-22T08:17:06.879Z,31.90
2019-01-22T08:18:06.854Z,28.50
2019-01-22T08:19:06.831Z,33.80
2019-01-22T08:20:06.799Z,29.50
2019-01-22T08:21:06.775Z,28.70
2019-01-22T08:22:06.749Z,29.70
2019-01-22T08:23:06.729Z,28.80
2019-01-22T08:24:06.700Z,29.60
2019-01-22T08:25:06.670Z,28.30
2019-01-22T08:26:06.646Z,32.80
2019-01-22T08:27:06.619Z,30.50
2019-01-22T08:28:06.593Z,28.70
2019-01-22T08:29:06.563Z,30.40
2019-01-22T08:30:06.538Z,32.20
2019-01-22T08:31:06.513Z,32.50
2019-01-22T08:32:06.485Z,28.40
2019-01-22T08:33:06.459Z,28.20
2019-01-22T08:34:06.445Z,30.50
2019-01-22T08:35:06.411Z,30.30
2019-01-22T08:36:06.402Z,27.70
2019-01-22T08:37:06.362Z,27.40
2019-01-22T08:38:06.333Z,27.70
2019-01-22T08:39:06.311Z,28.90
2019-01-22T08:40:06.281Z,28.00
2019-01-22T08:41:06.641Z,29.80
2019-01-22T08:42:06.233Z,28.90
2019-01-22T08:43:06.206Z,29.10
2019-01-22T08:44:06.189Z,31.20
2019-01-22T08:45:06.151Z,29.30
2019-01-22T08:46:06.125Z,27.70
2019-01-22T08:47:06.101Z,27.70
2019-01-22T08:48:06.084Z,29.00
2019-01-22T08:49:06.053Z,26.40
2019-01-22T08:50:06.034Z,29.20
2019-01-22T08:51:06.007Z,27.10
2019-01-22T08:52:05.981Z,29.50
2019-01-22T08:53:05.961Z,28.20
2019-01-22T08:54:05.936Z,25.60
2019-01-22T08:55:08.263Z,24.90
2019-01-22T08:56:05.883Z,26.60
2019-01-22T08:57:05.859Z,26.10
2019-01-22T08:58:05.840Z,25.70
2019-01-22T08:59:05.818Z,25.00
2019-01-22T09:00:05.796Z,25.30
2019-01-22T09:01:05.801Z,24.20
2019-01-22T09:02:05.755Z,25.40
2019-01-22T09:03:05.725Z,25.70
2019-01-22T09:04:05.703Z,23.80
2019-01-22T09:05:05.680Z,26.50
2019-01-22T09:06:05.661Z,25.10
2019-01-22T09:07:05.637Z,25.10
2019-01-22T09:08:09.745Z,24.10
2019-01-22T09:09:05.592Z,25.10
2019-01-22T09:10:05.570Z,24.80
2019-01-22T09:11:05.550Z,25.00
2019-01-22T09:12:05.531Z,26.90
2019-01-22T09:13:05.511Z,24.90
2019-01-22T09:14:05.484Z,28.30
2019-01-22T09:15:05.462Z,26.80
2019-01-22T09:16:05.441Z,25.30
2019-01-22T09:17:05.420Z,25.00
2019-01-22T09:18:05.401Z,25.50
2019-01-22T09:19:05.377Z,25.00
2019-01-22T09:20:05.356Z,24.20
2019-01-22T09:21:05.342Z,24.10
2019-01-22T09:22:05.317Z,26.60
2019-01-22T09:23:05.293Z,24.40
2019-01-22T09:24:05.269Z,27.20
2019-01-22T09:25:05.249Z,26.70
2019-01-22T09:26:05.230Z,24.20
2019-01-22T09:27:05.212Z,24.80
2019-01-22T09:28:05.183Z,25.50
2019-01-22T09:29:05.161Z,27.70
2019-01-22T09:30:05.143Z,23.90
2019-01-22T09:31:05.123Z,25.80
2019-01-22T09:32:05.096Z,24.80
2019-01-22T09:33:05.079Z,25.50
2019-01-22T09:34:05.059Z,27.20
2019-01-22T09:35:05.037Z,26.20
2019-01-22T09:36:05.012Z,25.10
2019-01-22T09:37:04.995Z,25.10
2019-01-22T09:38:04.967Z,26.30
2019-01-22T09:39:04.950Z,27.10
2019-01-22T09:40:04.933Z,24.60
2019-01-22T09:41:04.907Z,23.80
2019-01-22T09:42:04.884Z,26.60
2019-01-22T09:43:04.863Z,25.60
2019-01-22T09:44:04.837Z,25.40
2019-01-22T09:45:04.831Z,27.50
2019-01-22T09:46:04.804Z,25.20
2019-01-22T09:47:04.771Z,26.60
2019-01-22T09:48:04.753Z,25.30
2019-01-22T09:49:04.756Z,26.30
2019-01-22T09:50:04.710Z,25.80
2019-01-22T09:51:04.697Z,29.10
2019-01-22T09:52:04.662Z,25.00
2019-01-22T09:53:04.641Z,23.50
2019-01-22T09:54:04.621Z,24.90
2019-01-22T09:55:04.593Z,26.90
2019-01-22T09:56:04.573Z,28.10
2019-01-22T09:57:04.547Z,30.60
2019-01-22T09:58:04.572Z,33.70
2019-01-22T09:59:04.503Z,26.70
2019-01-22T10:00:04.486Z,26.60
2019-01-22T10:01:04.457Z,27.80
2019-01-22T10:02:04.435Z,28.80
2019-01-22T10:03:04.415Z,28.20
2019-01-22T10:04:04.392Z,27.50
2019-01-22T10:05:04.366Z,27.30
2019-01-22T10:06:04.343Z,31.20
2019-01-22T10:07:04.320Z,27.40
2019-01-22T10:08:04.305Z,28.00
2019-01-22T10:09:04.271Z,28.10
2019-01-22T10:10:04.250Z,26.80
2019-01-22T10:11:04.229Z,28.50
2019-01-22T10:12:04.203Z,27.90
2019-01-22T10:13:04.182Z,27.50
2019-01-22T10:14:04.164Z,26.60
2019-01-22T10:15:04.137Z,28.10
2019-01-22T10:16:04.121Z,28.40
2019-01-22T10:17:04.092Z,27.80
2019-01-22T10:18:04.074Z,25.60
2019-01-22T10:19:04.050Z,25.00
2019-01-22T10:20:04.029Z,24.50
2019-01-22T10:21:04.008Z,26.50
2019-01-22T10:22:03.988Z,25.20
2019-01-22T10:23:03.962Z,24.40
2019-01-22T10:24:03.941Z,26.10
2019-01-22T10:25:03.922Z,24.30
2019-01-22T10:26:03.903Z,23.10
2019-01-22T10:27:03.879Z,23.80
2019-01-22T10:28:03.864Z,25.80
2019-01-22T10:29:03.840Z,25.10
2019-01-22T10:30:03.825Z,24.90
2019-01-22T10:31:03.796Z,22.40
2019-01-22T10:32:03.785Z,24.70
2019-01-22T10:33:03.755Z,24.70
2019-01-22T10:34:03.736Z,25.10
2019-01-22T10:35:03.727Z,25.10
2019-01-22T10:36:03.690Z,24.30
2019-01-22T10:37:03.668Z,26.10
2019-01-22T10:38:03.659Z,24.60
2019-01-22T10:39:04.164Z,24.50
2019-01-22T10:40:03.606Z,22.50
2019-01-22T10:41:03.583Z,23.80
2019-01-22T10:42:03.582Z,23.80
2019-01-22T10:43:09.207Z,22.90
2019-01-22T10:44:03.525Z,21.50
2019-01-22T10:45:03.508Z,23.70
2019-01-22T10:46:03.478Z,24.90
2019-01-22T10:47:03.463Z,25.60
2019-01-22T10:48:03.440Z,25.50
2019-01-22T10:49:03.421Z,23.20
2019-01-22T10:50:03.399Z,25.20
2019-01-22T10:51:03.374Z,22.20
2019-01-22T10:52:03.348Z,24.70
2019-01-22T10:53:03.332Z,25.30
2019-01-22T10:54:03.326Z,24.30
2019-01-22T10:55:03.284Z,26.80
2019-01-22T10:56:03.261Z,25.40
2019-01-22T10:57:03.244Z,24.40
2019-01-22T10:58:03.843Z,24.30
2019-01-22T10:59:03.199Z,23.90
2019-01-22T11:00:03.177Z,21.90
2019-01-22T11:01:03.157Z,21.90
2019-01-22T11:02:03.128Z,23.10
2019-01-22T11:03:03.120Z,23.30
2019-01-22T11:04:03.088Z,21.90
2019-01-22T11:05:03.067Z,22.40
2019-01-22T11:06:03.045Z,23.80
2019-01-22T11:07:03.027Z,22.20
2019-01-22T11:08:03.005Z,23.30
2019-01-22T11:09:02.980Z,22.40
2019-01-22T11:10:02.958Z,23.60
2019-01-22T11:11:02.936Z,21.00
2019-01-22T11:12:02.912Z,21.20
2019-01-22T11:13:02.893Z,23.40
2019-01-22T11:14:02.863Z,21.30
2019-01-22T11:15:02.843Z,23.10
2019-01-22T11:16:02.823Z,21.10
2019-01-22T11:17:02.798Z,20.90
2019-01-22T11:18:02.784Z,20.50
2019-01-22T11:19:02.751Z,25.60
2019-01-22T11:20:02.740Z,27.40
2019-01-22T11:21:02.707Z,25.20
2019-01-22T11:22:02.692Z,22.60
2019-01-22T11:23:02.666Z,24.50
2019-01-22T11:24:02.647Z,22.10
2019-01-22T11:25:02.626Z,23.00
2019-01-22T11:26:02.599Z,23.70
2019-01-22T11:27:02.608Z,20.50
2019-01-22T11:28:02.551Z,20.80
2019-01-22T11:29:02.533Z,21.80
2019-01-22T11:30:02.513Z,22.50
2019-01-22T11:31:02.488Z,20.90
2019-01-22T11:32:02.472Z,20.20
2019-01-22T11:33:02.457Z,22.00
2019-01-22T11:34:02.426Z,23.00
2019-01-22T11:35:02.401Z,22.50
2019-01-22T11:36:02.379Z,21.70
2019-01-22T11:37:02.352Z,21.00
2019-01-22T11:38:02.343Z,19.30
2019-01-22T11:39:02.314Z,21.30
2019-01-22T11:40:02.288Z,22.70
2019-01-22T11:41:02.266Z,20.40
2019-01-22T11:42:02.243Z,21.30
2019-01-22T11:43:02.225Z,19.50
2019-01-22T11:44:02.202Z,21.90
2019-01-22T11:45:02.176Z,20.60
2019-01-22T11:46:02.154Z,22.10
2019-01-22T11:47:02.135Z,21.70
2019-01-22T11:48:02.118Z,20.20
2019-01-22T11:49:02.088Z,20.90
2019-01-22T11:50:02.075Z,20.70
2019-01-22T11:51:02.047Z,20.20
2019-01-22T11:52:02.028Z,23.50
2019-01-22T11:53:02.010Z,18.30
2019-01-22T11:54:01.981Z,21.40
2019-01-22T11:55:01.959Z,19.80
2019-01-22T11:56:01.943Z,22.10
2019-01-22T11:57:01.923Z,20.00
2019-01-22T11:58:01.895Z,21.00
2019-01-22T11:59:01.874Z,21.70
2019-01-22T12:00:01.865Z,21.50
2019-01-22T12:01:01.843Z,19.00
2019-01-22T12:02:01.812Z,20.60
2019-01-22T12:03:01.798Z,20.00
2019-01-22T12:04:01.774Z,21.40
2019-01-22T12:05:01.757Z,19.10
2019-01-22T12:06:01.729Z,19.30
2019-01-22T12:07:01.712Z,21.70
2019-01-22T12:08:01.687Z,20.60
2019-01-22T12:09:01.669Z,22.10
2019-01-22T12:10:01.648Z,19.70
2019-01-22T12:11:01.621Z,23.70
2019-01-22T12:12:01.608Z,21.60
2019-01-22T12:13:01.590Z,18.60
2019-01-22T12:14:01.561Z,19.90
2019-01-22T12:15:01.541Z,21.10
2019-01-22T12:16:01.518Z,21.20
2019-01-22T12:17:01.658Z,18.20
2019-01-22T12:18:01.481Z,20.40
2019-01-22T12:19:01.458Z,19.10
2019-01-22T12:20:01.780Z,19.10
2019-01-22T12:21:01.428Z,18.00
2019-01-22T12:22:01.395Z,17.30
2019-01-22T12:23:01.383Z,19.00
2019-01-22T12:24:01.355Z,18.50
2019-01-22T12:25:01.337Z,16.40
2019-01-22T12:26:01.318Z,19.40
2019-01-22T12:27:01.297Z,17.40
2019-01-22T12:28:01.278Z,19.00
2019-01-22T12:29:01.256Z,18.40
2019-01-22T12:30:01.240Z,16.50
2019-01-22T12:31:01.214Z,20.00
2019-01-22T12:32:01.195Z,17.20
2019-01-22T12:33:01.176Z,14.90
2019-01-22T12:34:01.153Z,17.00
2019-01-22T12:35:01.132Z,19.60
2019-01-22T12:36:01.119Z,16.30
2019-01-22T12:37:01.096Z,17.00
2019-01-22T12:38:01.070Z,18.40
2019-01-22T12:39:01.048Z,16.90
2019-01-22T12:40:01.026Z,17.60
2019-01-22T12:41:01.003Z,20.60
2019-01-22T12:42:00.989Z,18.20
2019-01-22T12:43:00.968Z,17.40
2019-01-22T12:44:00.938Z,18.10
2019-01-22T12:45:00.923Z,17.00
2019-01-22T12:46:00.898Z,17.00
2019-01-22T12:47:00.878Z,18.90
2019-01-22T12:48:00.857Z,17.80
2019-01-22T12:49:00.837Z,19.80
2019-01-22T12:50:00.897Z,17.10
2019-01-22T12:51:00.797Z,17.30
2019-01-22T12:52:00.882Z,17.50